Time;durP1;ratioP1;P1;durP2;ratioP2;P2;SDS_P1;SDS_P2;PMS_P1;PMS_P2;Temp;Humidity;BMP_temperature;BMP_pressure;BME280_temperature;BME280_humidity;BME280_pressure;Samples;Min_cycle;Max_cycle;Signal;HPM_P1;HPM_P2
2021/11/12 00:13:29;;;;;;;48.45;28.27;;;1.40;92.20;;;;;;5014361;28;20042;-78
2021/11/12 00:16:01;;;;;;;48.22;27.10;;;1.30;93.20;;;;;;5010526;28;20018;-78
2021/11/12 00:18:29;;;;;;;53.63;29.52;;;1.30;92.30;;;;;;5011582;28;20022;-76
2021/11/12 00:20:56;;;;;;;41.20;25.80;;;1.20;92.40;;;;;;5005879;28;20026;-77
2021/11/12 00:23:23;;;;;;;54.60;31.27;;;1.30;91.20;;;;;;5010334;28;20030;-76
2021/11/12 00:25:50;;;;;;;51.53;28.63;;;1.30;92.70;;;;;;5006445;28;20092;-76
2021/11/12 00:28:20;;;;;;;47.67;28.27;;;1.10;93.10;;;;;;5008067;28;20052;-76
2021/11/12 00:38:28;;;;;;;55.55;30.05;;;1.00;91.60;;;;;;5008809;28;20410;-77
2021/11/12 00:41:00;;;;;;;57.88;30.60;;;1.10;91.70;;;;;;5012018;28;20046;-77
2021/11/12 00:43:36;;;;;;;63.90;32.03;;;1.10;91.20;;;;;;5010068;28;20028;-76
2021/11/12 00:48:40;;;;;;;51.97;28.20;;;1.20;91.10;;;;;;5009254;28;20068;-77
2021/11/12 00:51:25;;;;;;;53.03;27.55;;;1.10;91.30;;;;;;5015083;28;20342;-76
2021/11/12 00:54:05;;;;;;;65.05;33.53;;;1.10;90.50;;;;;;5015299;28;20025;-76
2021/11/12 00:56:34;;;;;;;43.78;26.38;;;1.20;90.40;;;;;;5005110;28;20116;-76
2021/11/12 00:59:03;;;;;;;44.75;26.05;;;1.10;90.90;;;;;;5011389;28;20022;-76
2021/11/12 01:01:31;;;;;;;47.53;27.10;;;1.10;90.40;;;;;;5008413;28;20021;-76
2021/11/12 01:03:58;;;;;;;74.78;34.50;;;1.10;90.80;;;;;;5013284;28;20100;-76
2021/11/12 01:06:24;;;;;;;57.35;30.00;;;1.10;89.90;;;;;;5000935;28;20029;-75
2021/11/12 01:08:51;;;;;;;54.05;27.48;;;1.20;90.40;;;;;;5014067;28;20026;-75
2021/11/12 01:11:18;;;;;;;61.97;30.58;;;1.20;90.10;;;;;;5011364;28;20033;-76
2021/11/12 01:13:46;;;;;;;64.53;32.58;;;1.20;89.70;;;;;;5012710;28;20438;-75
2021/11/12 01:16:12;;;;;;;58.75;31.52;;;1.20;90.30;;;;;;5010600;28;20670;-76
2021/11/12 01:18:38;;;;;;;59.20;30.77;;;1.10;90.00;;;;;;5013292;28;20100;-77
2021/11/12 01:21:10;;;;;;;49.80;26.75;;;1.20;89.70;;;;;;5008096;28;20402;-77
2021/11/12 01:23:39;;;;;;;45.00;25.83;;;1.20;89.20;;;;;;4999887;28;20460;-78
2021/11/12 01:26:05;;;;;;;58.13;29.98;;;1.30;87.90;;;;;;5001528;28;20029;-76
2021/11/12 01:28:32;;;;;;;62.33;31.65;;;1.40;88.90;;;;;;5013243;28;20569;-77
2021/11/12 01:30:58;;;;;;;56.67;28.83;;;1.40;89.20;;;;;;5011483;28;20034;-78
2021/11/12 01:33:24;;;;;;;41.50;25.17;;;1.40;89.60;;;;;;5013772;28;20163;-77
2021/11/12 01:35:50;;;;;;;61.90;30.67;;;1.40;88.90;;;;;;5008298;28;20518;-76
2021/11/12 01:38:16;;;;;;;62.72;31.08;;;1.40;88.70;;;;;;5007180;28;20050;-75
2021/11/12 01:40:43;;;;;;;41.95;25.73;;;1.60;88.30;;;;;;5012633;28;20049;-77
2021/11/12 01:43:23;;;;;;;61.67;32.17;;;1.50;88.70;;;;;;5011100;28;20025;-75
2021/11/12 01:53:40;;;;;;;49.90;29.10;;;1.40;88.50;;;;;;5014258;28;20092;-76
2021/11/12 02:01:35;;;;;;;51.45;27.80;;;1.20;89.60;;;;;;5007660;28;20034;-76
2021/11/12 02:04:01;;;;;;;49.67;26.02;;;1.00;90.50;;;;;;5013754;28;20030;-77
2021/11/12 02:06:27;;;;;;;53.97;29.02;;;0.90;89.80;;;;;;5010070;28;20044;-76
2021/11/12 02:08:53;;;;;;;41.55;23.50;;;0.80;90.20;;;;;;5018338;28;20030;-77
2021/11/12 02:11:20;;;;;;;36.75;21.98;;;0.70;90.70;;;;;;5010225;28;20033;-77
2021/11/12 02:13:47;;;;;;;36.45;22.23;;;0.70;89.00;;;;;;5010232;28;20053;-76
2021/11/12 02:16:19;;;;;;;42.67;24.13;;;0.70;87.90;;;;;;5008473;28;20022;-76
2021/11/12 02:18:46;;;;;;;42.42;25.02;;;0.80;87.80;;;;;;5009894;28;20549;-75
2021/11/12 02:24:05;;;;;;;51.90;28.42;;;1.10;87.90;;;;;;4995860;28;20125;-75
2021/11/12 02:26:35;;;;;;;66.75;32.08;;;1.10;88.10;;;;;;4999141;28;20057;-78
2021/11/12 02:29:05;;;;;;;44.58;24.85;;;1.20;87.90;;;;;;5007788;28;21486;-76
2021/11/12 02:31:31;;;;;;;44.55;25.65;;;1.20;87.60;;;;;;5007296;28;20084;-76
2021/11/12 02:34:05;;;;;;;41.30;23.63;;;1.30;87.50;;;;;;5007637;28;20030;-76
2021/11/12 02:36:31;;;;;;;53.00;28.60;;;1.30;88.30;;;;;;5008075;28;20411;-76
2021/11/12 02:38:57;;;;;;;59.92;30.90;;;1.20;88.80;;;;;;5006374;28;20034;-75
2021/11/12 02:41:23;;;;;;;47.63;25.77;;;1.40;87.50;;;;;;5001793;28;20044;-76
2021/11/12 02:43:51;;;;;;;70.40;32.13;;;1.50;88.20;;;;;;5012316;28;20485;-76
2021/11/12 02:46:20;;;;;;;50.25;28.00;;;1.40;88.40;;;;;;5012485;28;20068;-77
2021/11/12 02:48:46;;;;;;;64.30;31.55;;;1.40;88.00;;;;;;5016012;28;20422;-76
2021/11/12 02:51:18;;;;;;;75.03;35.40;;;1.50;87.80;;;;;;5013949;28;20030;-77
2021/11/12 02:53:45;;;;;;;58.53;29.50;;;1.50;88.30;;;;;;5012009;28;20072;-75
2021/11/12 02:56:15;;;;;;;70.95;33.55;;;1.50;87.90;;;;;;5011861;28;20034;-76
2021/11/12 02:58:41;;;;;;;64.68;32.97;;;1.60;87.80;;;;;;5016952;28;20058;-76
2021/11/12 03:01:08;;;;;;;53.50;29.02;;;1.50;87.90;;;;;;5014832;28;20030;-76
2021/11/12 03:03:35;;;;;;;77.15;34.20;;;1.50;87.90;;;;;;5015114;28;21524;-76
2021/11/12 03:06:00;;;;;;;67.78;33.85;;;1.60;87.40;;;;;;5013539;28;20026;-76
2021/11/12 03:08:27;;;;;;;53.97;28.77;;;1.60;87.50;;;;;;5009770;28;20437;-76
2021/11/12 03:10:55;;;;;;;60.10;30.90;;;1.60;87.80;;;;;;5013332;28;20089;-77
2021/11/12 03:13:25;;;;;;;65.13;35.42;;;1.60;87.80;;;;;;5010887;28;20033;-76
2021/11/12 03:15:51;;;;;;;67.47;32.85;;;1.60;87.40;;;;;;5012892;28;20074;-76
2021/11/12 03:18:18;;;;;;;63.35;32.25;;;1.70;87.00;;;;;;5010504;28;20030;-76
2021/11/12 03:20:44;;;;;;;54.42;29.80;;;1.60;87.90;;;;;;5006669;28;20045;-77
2021/11/12 03:23:16;;;;;;;58.50;28.40;;;1.60;88.60;;;;;;5013355;28;20427;-75
2021/11/12 04:03:10;;;;;;;85.72;34.88;;;1.10;87.50;;;;;;5010001;28;20330;-74
2021/11/12 04:19:40;;;;;;;42.50;24.17;;;1.00;88.70;;;;;;5009465;28;20037;-77
2021/11/12 04:30:43;;;;;;;53.00;27.92;;;1.00;88.40;;;;;;5005937;28;20430;-75
2021/11/12 05:51:38;;;;;;;49.67;28.05;;;1.20;86.60;;;;;;5014251;28;20438;-77
2021/11/12 05:56:52;;;;;;;54.80;29.88;;;1.10;87.10;;;;;;5011380;28;20387;-77
2021/11/12 05:59:18;;;;;;;60.45;30.23;;;1.20;86.50;;;;;;5005833;28;20121;-77
2021/11/12 06:01:46;;;;;;;59.17;28.80;;;1.30;86.10;;;;;;5072332;22;20045;-77
2021/11/12 06:04:12;;;;;;;81.97;34.20;;;1.30;86.80;;;;;;5050788;28;20036;-77
2021/11/12 06:06:38;;;;;;;48.38;26.70;;;1.20;88.30;;;;;;5048248;28;20045;-77
2021/11/12 06:09:05;;;;;;;48.47;26.92;;;1.20;87.90;;;;;;5047140;28;20052;-77
2021/11/12 06:11:32;;;;;;;55.45;28.52;;;1.20;86.70;;;;;;5050027;28;20025;-77
2021/11/12 06:13:58;;;;;;;66.95;33.92;;;1.20;87.40;;;;;;5050004;28;20025;-77
2021/11/12 06:16:28;;;;;;;75.70;38.97;;;1.20;87.40;;;;;;5052369;28;20020;-76
2021/11/12 06:18:54;;;;;;;72.15;38.83;;;1.20;87.30;;;;;;5056853;28;20025;-76
2021/11/12 06:21:21;;;;;;;75.03;38.13;;;1.30;86.90;;;;;;5056963;28;20037;-76
2021/11/12 06:23:47;;;;;;;66.45;36.83;;;1.30;87.10;;;;;;5054712;28;20025;-76
2021/11/12 06:26:12;;;;;;;80.88;39.17;;;1.30;87.20;;;;;;5054021;28;20072;-76
2021/11/12 06:28:38;;;;;;;95.47;47.08;;;1.20;87.90;;;;;;5056681;28;20029;-74
2021/11/12 06:31:05;;;;;;;150.15;51.13;;;1.30;87.60;;;;;;5044145;28;20420;-79
2021/11/12 06:33:31;;;;;;;90.68;38.13;;;1.30;87.80;;;;;;5039830;28;20239;-76
2021/11/12 06:35:58;;;;;;;88.32;37.33;;;1.30;87.90;;;;;;5041619;28;20329;-75
2021/11/12 06:38:27;;;;;;;104.43;45.33;;;1.30;87.70;;;;;;5045458;28;20506;-76
2021/11/12 06:40:53;;;;;;;83.53;40.60;;;1.40;86.80;;;;;;5041502;28;20029;-76
2021/11/12 06:51:14;;;;;;;109.80;43.50;;;1.60;86.80;;;;;;5055339;28;20036;-76
2021/11/12 06:53:41;;;;;;;63.97;34.70;;;1.50;88.80;;;;;;5057017;28;20320;-77
2021/11/12 06:56:07;;;;;;;82.25;37.58;;;1.40;88.70;;;;;;5054722;28;20432;-76
2021/11/12 06:58:34;;;;;;;85.40;38.15;;;1.40;88.60;;;;;;5057272;28;20028;-76
2021/11/12 07:01:00;;;;;;;84.05;40.10;;;1.40;87.90;;;;;;5057630;28;20036;-77
2021/11/12 07:03:26;;;;;;;135.40;49.70;;;1.50;87.20;;;;;;5056854;28;20099;-77
2021/11/12 07:05:53;;;;;;;85.03;38.03;;;1.60;87.30;;;;;;5056971;28;20036;-76
2021/11/12 07:08:19;;;;;;;54.92;30.10;;;1.60;88.10;;;;;;5055544;28;20029;-76
2021/11/12 07:10:47;;;;;;;106.10;42.40;;;1.60;87.10;;;;;;5056701;28;20036;-75
2021/11/12 07:13:12;;;;;;;88.72;38.47;;;1.70;86.80;;;;;;5057018;28;20017;-77
2021/11/12 07:15:39;;;;;;;65.03;33.33;;;1.70;88.00;;;;;;5056938;28;20433;-76
2021/11/12 07:18:05;;;;;;;71.47;36.75;;;1.50;89.00;;;;;;5055804;28;20167;-76
2021/11/12 07:20:31;;;;;;;74.93;37.78;;;1.30;89.60;;;;;;5056371;28;20090;-76
2021/11/12 07:22:57;;;;;;;74.00;35.53;;;1.30;88.30;;;;;;5056894;28;20033;-78
2021/11/12 07:25:23;;;;;;;65.32;34.75;;;1.30;88.40;;;;;;5055234;28;20106;-77
2021/11/12 07:27:50;;;;;;;74.75;39.65;;;1.30;88.30;;;;;;5041411;28;20034;-76
2021/11/12 07:30:18;;;;;;;64.05;36.58;;;1.40;88.00;;;;;;5038184;28;20486;-75
2021/11/12 07:32:45;;;;;;;75.30;39.15;;;1.60;87.30;;;;;;5048067;28;20061;-76
2021/11/12 07:35:12;;;;;;;72.07;38.25;;;1.80;86.80;;;;;;5055766;28;20024;-75
2021/11/12 07:37:38;;;;;;;82.32;39.30;;;2.00;86.30;;;;;;5052121;28;20020;-75
2021/11/12 07:40:07;;;;;;;83.18;38.55;;;2.20;86.50;;;;;;5047523;28;20029;-77
2021/11/12 07:45:08;;;;;;;75.88;41.50;;;2.10;88.70;;;;;;5037917;28;20092;-76
2021/11/12 07:47:35;;;;;;;100.20;47.92;;;2.10;87.80;;;;;;5048686;28;20021;-76
2021/11/12 07:50:03;;;;;;;84.55;42.30;;;2.20;87.20;;;;;;5057195;28;20026;-76
2021/11/12 07:52:35;;;;;;;72.45;39.28;;;2.40;86.80;;;;;;5055442;28;20033;-77
2021/11/12 07:55:03;;;;;;;75.95;38.17;;;2.40;87.00;;;;;;5054270;28;20325;-76
2021/11/12 07:57:28;;;;;;;84.35;45.58;;;2.30;87.80;;;;;;5048375;28;20417;-76
2021/11/12 07:59:55;;;;;;;74.75;39.08;;;2.60;86.60;;;;;;5057268;28;20150;-75
2021/11/12 08:02:21;;;;;;;98.82;47.22;;;2.90;85.90;;;;;;5056211;28;20041;-77
2021/11/12 08:04:56;;;;;;;95.97;47.92;;;3.10;87.10;;;;;;5055637;28;20421;-76
2021/11/12 08:07:23;;;;;;;85.93;44.58;;;2.90;88.10;;;;;;5054278;28;20467;-77
2021/11/12 08:09:53;;;;;;;77.63;40.75;;;2.80;88.50;;;;;;5056037;28;20021;-76
2021/11/12 08:12:23;;;;;;;79.70;42.25;;;2.90;87.80;;;;;;5040833;28;20026;-77
2021/11/12 08:17:33;;;;;;;93.38;45.78;;;3.40;86.70;;;;;;5056177;28;20036;-76
2021/11/12 08:23:11;;;;;;;47.85;28.08;;;5.00;85.30;;;;;;4987651;28;20031;-77
2021/11/12 08:25:48;;;;;;;72.28;38.75;;;5.70;86.70;;;;;;4975130;28;20031;-76
2021/11/12 08:34:07;;;;;;;;;;;7.10;98.00;;;;;;5040231;28;20088;-77
2021/11/12 08:37:30;;;;;;;39.95;23.15;;;8.50;98.00;;;;;;5052237;28;20208;-77
2021/11/12 08:39:49;;;;;;;32.55;17.80;;;9.70;98.00;;;;;;5035183;28;20029;-77
2021/11/12 08:42:19;;;;;;;29.70;19.00;;;10.70;98.00;;;;;;5053196;28;20033;-76
2021/11/12 08:44:50;;;;;;;34.67;19.80;;;11.60;98.00;;;;;;5054422;28;20413;-76
2021/11/12 08:47:32;;;;;;;31.95;19.42;;;11.40;92.10;;;;;;5055450;28;20075;-76
2021/11/12 08:49:59;;;;;;;30.88;19.30;;;10.80;89.90;;;;;;5055626;28;20424;-77
2021/11/12 08:52:26;;;;;;;24.35;16.85;;;10.40;90.60;;;;;;5055886;28;20394;-76
2021/11/12 08:54:52;;;;;;;24.52;17.25;;;10.50;93.60;;;;;;5053002;28;20041;-77
2021/11/12 08:57:19;;;;;;;25.05;15.98;;;11.50;95.10;;;;;;5052736;28;20323;-77
2021/11/12 08:59:52;;;;;;;22.98;15.85;;;12.00;90.00;;;;;;5055522;28;20327;-78
2021/11/12 09:02:21;;;;;;;23.55;15.32;;;12.80;88.90;;;;;;5054376;28;20078;-78
2021/11/12 09:04:48;;;;;;;21.67;15.38;;;12.90;84.30;;;;;;5054383;28;20428;-77
2021/11/12 09:07:15;;;;;;;21.95;14.35;;;13.10;84.20;;;;;;5051048;28;20039;-77
2021/11/12 09:09:42;;;;;;;23.15;14.88;;;13.20;83.30;;;;;;5054981;28;20081;-78
2021/11/12 09:12:11;;;;;;;22.63;15.27;;;13.10;82.20;;;;;;5053606;28;20113;-77
2021/11/12 09:14:41;;;;;;;26.33;14.80;;;13.20;80.40;;;;;;5055546;28;20056;-76
2021/11/12 09:17:08;;;;;;;28.65;17.50;;;13.30;80.10;;;;;;5054154;28;20029;-76
2021/11/12 09:22:34;;;;;;;23.55;15.43;;;13.00;80.90;;;;;;5041114;28;20131;-77
2021/11/12 09:25:00;;;;;;;26.75;16.75;;;13.30;79.30;;;;;;5052991;28;20168;-77
2021/11/12 09:27:26;;;;;;;25.02;16.20;;;13.30;79.30;;;;;;5054573;28;20095;-76
2021/11/12 09:29:52;;;;;;;28.83;16.23;;;13.10;78.80;;;;;;5054140;28;20035;-77
2021/11/12 09:32:19;;;;;;;47.50;20.85;;;12.90;79.10;;;;;;5055850;28;20032;-77
2021/11/12 09:34:47;;;;;;;33.72;17.58;;;12.70;79.80;;;;;;5052544;28;20021;-76
2021/11/12 09:37:20;;;;;;;31.60;17.77;;;12.90;81.00;;;;;;5043200;28;20021;-76
2021/11/12 09:39:48;;;;;;;25.63;15.82;;;13.50;79.40;;;;;;5052384;28;20029;-76
2021/11/12 09:42:16;;;;;;;22.15;15.68;;;14.20;77.00;;;;;;5054969;28;20036;-74
2021/11/12 09:44:42;;;;;;;25.98;16.85;;;14.80;75.60;;;;;;5055335;28;20031;-82
2021/11/12 09:47:09;;;;;;;26.55;17.35;;;15.10;75.30;;;;;;5045672;28;20040;-82
2021/11/12 09:49:36;;;;;;;27.95;18.95;;;13.80;77.70;;;;;;5053294;28;20425;-78
2021/11/12 09:52:02;;;;;;;31.98;20.00;;;12.30;80.90;;;;;;5049097;28;20029;-75
2021/11/12 09:54:27;;;;;;;28.38;19.45;;;11.90;83.70;;;;;;5055324;28;20055;-79
2021/11/12 09:56:53;;;;;;;33.22;21.33;;;12.00;83.10;;;;;;5048340;28;20052;-77
2021/11/12 09:59:19;;;;;;;29.45;18.80;;;12.30;82.70;;;;;;5052886;28;20418;-77
2021/11/12 10:01:44;;;;;;;29.67;20.20;;;12.40;82.30;;;;;;5054230;28;20449;-77
2021/11/12 10:04:11;;;;;;;26.67;17.85;;;12.80;81.30;;;;;;5055471;28;20439;-77
2021/11/12 10:06:41;;;;;;;24.73;16.60;;;13.00;80.80;;;;;;5051035;28;20017;-76
2021/11/12 10:09:20;;;;;;;25.67;16.83;;;12.80;81.10;;;;;;5036393;28;20029;-77
2021/11/12 10:11:49;;;;;;;23.92;15.88;;;12.80;81.20;;;;;;5036418;28;20029;-76
2021/11/12 10:14:43;;;;;;;23.55;15.23;;;12.90;81.00;;;;;;5053945;28;20048;-76
2021/11/12 10:17:10;;;;;;;20.80;14.00;;;12.80;80.80;;;;;;5043531;28;20545;-76
2021/11/12 10:19:48;;;;;;;25.60;15.52;;;13.00;80.50;;;;;;5054062;28;20133;-75
2021/11/12 10:22:22;;;;;;;20.42;14.40;;;12.80;80.30;;;;;;5049337;28;20035;-76
2021/11/12 10:24:47;;;;;;;24.58;15.95;;;12.70;81.20;;;;;;5051029;28;20025;-75
2021/11/12 10:27:17;;;;;;;26.63;16.52;;;13.10;81.60;;;;;;5044064;28;20075;-76
2021/11/12 10:29:52;;;;;;;22.73;14.98;;;13.60;79.00;;;;;;5047447;28;20037;-76
2021/11/12 10:32:25;;;;;;;21.88;15.52;;;14.40;77.10;;;;;;5054970;28;20117;-76
2021/11/12 10:34:53;;;;;;;23.55;15.35;;;14.80;75.50;;;;;;5048744;28;20051;-76
2021/11/12 10:37:24;;;;;;;22.00;14.68;;;15.00;75.30;;;;;;5038118;28;20044;-75
2021/11/12 10:39:52;;;;;;;24.52;16.05;;;15.10;74.50;;;;;;5050433;28;20495;-76
2021/11/12 10:42:21;;;;;;;22.65;15.60;;;14.90;75.30;;;;;;5054221;28;20064;-75
2021/11/12 10:44:53;;;;;;;26.10;16.05;;;15.00;74.80;;;;;;5054378;28;20075;-75
2021/11/12 10:47:23;;;;;;;23.05;15.27;;;14.40;76.60;;;;;;5050677;28;20452;-75
2021/11/12 10:49:54;;;;;;;26.58;15.57;;;14.60;77.00;;;;;;5054331;28;20033;-75
2021/11/12 10:52:23;;;;;;;23.13;16.63;;;14.90;76.10;;;;;;5054257;28;20025;-75
2021/11/12 10:55:03;;;;;;;24.38;16.77;;;14.30;77.40;;;;;;5052368;28;20120;-76
2021/11/12 10:57:40;;;;;;;26.65;15.27;;;14.70;77.00;;;;;;5049194;28;20025;-76
2021/11/12 11:00:42;;;;;;;22.20;15.40;;;14.60;76.00;;;;;;5053173;28;20017;-76
2021/11/12 11:03:10;;;;;;;21.58;15.35;;;15.40;74.00;;;;;;5044156;28;20478;-76
2021/11/12 11:05:42;;;;;;;24.23;16.30;;;15.50;74.40;;;;;;5057920;28;20032;-76
2021/11/12 11:08:16;;;;;;;24.08;14.48;;;15.60;74.40;;;;;;5055425;28;20025;-76
2021/11/12 11:10:47;;;;;;;;;;;15.50;73.90;;;;;;5056542;28;20091;-76
2021/11/12 11:13:15;;;;;;;25.75;15.50;;;15.60;73.10;;;;;;5057395;28;19909;-76
2021/11/12 11:15:50;;;;;;;22.23;14.73;;;15.10;74.50;;;;;;5057495;28;20037;-76
2021/11/12 11:18:30;;;;;;;33.05;15.60;;;15.40;74.00;;;;;;5054610;28;20120;-76
2021/11/12 11:23:53;;;;;;;25.98;15.68;;;15.20;74.70;;;;;;5044206;28;20114;-76
2021/11/12 11:26:20;;;;;;;22.53;14.80;;;14.80;75.30;;;;;;5056890;28;20314;-77
2021/11/12 11:28:48;;;;;;;25.23;15.13;;;15.10;75.50;;;;;;5054835;28;20276;-76
2021/11/12 11:31:15;;;;;;;24.13;15.80;;;15.50;74.90;;;;;;5054753;28;20029;-77
2021/11/12 11:33:43;;;;;;;19.67;13.88;;;15.50;74.00;;;;;;5052555;28;20021;-77
2021/11/12 11:36:10;;;;;;;23.02;15.27;;;16.00;73.30;;;;;;5052110;28;20059;-76
2021/11/12 11:38:39;;;;;;;22.90;15.93;;;16.40;71.20;;;;;;5052471;28;20035;-76
2021/11/12 11:41:07;;;;;;;23.98;15.35;;;16.10;71.60;;;;;;5054977;28;20393;-76
2021/11/12 11:43:33;;;;;;;22.33;16.00;;;15.60;74.00;;;;;;5047273;28;20047;-75
2021/11/12 11:46:06;;;;;;;21.25;15.15;;;15.40;74.00;;;;;;5048807;28;20082;-75
2021/11/12 11:48:41;;;;;;;23.05;15.13;;;15.40;74.50;;;;;;5051601;28;20477;-77
2021/11/12 11:51:07;;;;;;;21.58;14.98;;;15.40;74.00;;;;;;5056610;28;20032;-77
2021/11/12 11:53:46;;;;;;;22.50;15.25;;;15.10;75.80;;;;;;5057004;28;20109;-77
2021/11/12 11:56:29;;;;;;;27.40;14.70;;;15.30;75.20;;;;;;5052300;28;20056;-77
2021/11/12 11:59:08;;;;;;;24.60;15.50;;;15.30;75.30;;;;;;5056648;28;20020;-77
2021/11/12 12:01:47;;;;;;;25.95;15.73;;;15.00;75.90;;;;;;5054574;28;20045;-77
2021/11/12 12:04:13;;;;;;;22.20;15.25;;;15.00;75.90;;;;;;5055068;28;20107;-77
2021/11/12 12:07:00;;;;;;;22.90;15.32;;;15.20;75.90;;;;;;5055519;28;20529;-77
2021/11/12 12:09:47;;;;;;;21.80;14.70;;;15.20;75.50;;;;;;5049433;28;20029;-77
2021/11/12 12:12:14;;;;;;;24.13;16.42;;;14.80;76.30;;;;;;5037046;28;20053;-76
2021/11/12 12:14:42;;;;;;;22.08;14.93;;;14.70;76.70;;;;;;5051129;28;20352;-77
2021/11/12 12:17:22;;;;;;;21.50;15.25;;;14.70;77.40;;;;;;5053199;28;20032;-76
2021/11/12 13:23:08;;;;;;;24.77;17.63;;;14.40;79.70;;;;;;5034406;28;20044;-77
2021/11/12 13:25:37;;;;;;;27.17;18.08;;;14.20;79.50;;;;;;5032417;28;20292;-76
2021/11/12 13:28:13;;;;;;;25.15;16.55;;;13.90;80.50;;;;;;5034853;28;20437;-76
2021/11/12 13:30:41;;;;;;;24.90;16.75;;;13.80;80.40;;;;;;5027803;28;20029;-77
2021/11/12 13:33:33;;;;;;;26.35;16.98;;;13.60;81.20;;;;;;5032865;28;20123;-76
2021/11/12 13:36:04;;;;;;;25.95;17.60;;;13.50;81.60;;;;;;5016131;28;20032;-76
2021/11/12 13:38:39;;;;;;;26.35;17.13;;;13.60;81.30;;;;;;5044341;28;20026;-75
2021/11/12 13:41:07;;;;;;;28.92;18.23;;;13.70;81.80;;;;;;5032972;28;20029;-76
2021/11/12 13:43:37;;;;;;;27.05;18.02;;;13.60;81.90;;;;;;5035817;28;20049;-76
2021/11/12 13:46:04;;;;;;;24.05;16.08;;;13.60;81.60;;;;;;5049983;28;20630;-76
2021/11/12 13:48:41;;;;;;;27.98;16.27;;;13.50;81.30;;;;;;5035450;28;20399;-76
2021/11/12 13:51:07;;;;;;;27.88;18.10;;;13.60;81.70;;;;;;5033272;28;20064;-76
2021/11/12 13:53:33;;;;;;;33.25;20.67;;;13.70;81.80;;;;;;5034735;28;20053;-76
2021/11/12 13:56:01;;;;;;;30.67;19.80;;;13.70;82.10;;;;;;5033391;28;20038;-76
2021/11/12 13:58:28;;;;;;;32.80;20.23;;;13.70;82.10;;;;;;5050444;28;20029;-76
2021/11/12 14:00:56;;;;;;;34.05;21.80;;;13.60;82.20;;;;;;5032290;28;20035;-77
2021/11/12 14:03:33;;;;;;;35.25;21.48;;;13.30;82.70;;;;;;5034983;28;20029;-76
2021/11/12 14:06:04;;;;;;;35.42;21.55;;;13.20;83.70;;;;;;5034876;28;20314;-76
2021/11/12 14:08:46;;;;;;;29.25;18.67;;;13.20;83.70;;;;;;5034367;28;20109;-77
2021/11/12 14:11:20;;;;;;;23.80;17.38;;;13.40;83.80;;;;;;5029927;28;20038;-77
2021/11/12 14:13:48;;;;;;;25.50;18.90;;;13.50;82.90;;;;;;5018279;28;20520;-77
2021/11/12 14:16:20;;;;;;;25.95;18.17;;;13.30;82.90;;;;;;5034806;28;20033;-77
2021/11/12 14:22:05;;;;;;;25.95;18.30;;;12.90;83.90;;;;;;5032634;28;20083;-77
2021/11/12 14:27:17;;;;;;;29.08;19.98;;;13.10;84.30;;;;;;5033494;28;20120;-77
2021/11/12 14:46:41;;;;;;;31.48;18.42;;;12.60;86.70;;;;;;5038213;28;20040;-78
2021/11/12 14:49:34;;;;;;;29.85;17.92;;;12.60;86.70;;;;;;5038883;28;20025;-78
2021/11/12 14:52:12;;;;;;;25.30;16.80;;;12.80;86.00;;;;;;5038237;28;20025;-77
2021/11/12 14:59:45;;;;;;;29.30;16.70;;;12.80;86.00;;;;;;5038123;28;20330;-77
2021/11/12 15:02:11;;;;;;;29.10;17.80;;;12.70;86.20;;;;;;5037553;28;20048;-77
2021/11/12 15:04:38;;;;;;;25.73;18.67;;;12.50;86.90;;;;;;5031672;28;20017;-78
2021/11/12 15:07:04;;;;;;;28.65;18.17;;;12.40;87.00;;;;;;5038697;28;20021;-77
2021/11/12 15:09:31;;;;;;;27.55;18.35;;;12.10;87.80;;;;;;5036069;28;20083;-76
2021/11/12 15:12:00;;;;;;;29.88;18.42;;;11.90;88.40;;;;;;5036261;28;20025;-76
2021/11/12 15:14:28;;;;;;;30.98;19.42;;;11.70;88.60;;;;;;5036159;28;20021;-77
2021/11/12 15:16:54;;;;;;;33.08;19.90;;;12.00;88.90;;;;;;5036686;28;20042;-77
2021/11/12 15:19:22;;;;;;;31.25;20.30;;;12.10;87.90;;;;;;5038176;28;20087;-77
2021/11/12 15:30:38;;;;;;;32.92;23.15;;;10.30;91.60;;;;;;5025909;28;20489;-76
2021/11/12 15:32:46;;;;;;;33.25;22.88;;;9.90;92.80;;;;;;5032623;28;20037;-77
2021/11/12 15:35:14;;;;;;;37.30;24.85;;;9.70;93.90;;;;;;5028766;28;20036;-76
2021/11/12 15:37:46;;;;;;;29.75;21.10;;;9.60;94.50;;;;;;5017848;28;20080;-78
2021/11/12 15:45:23;;;;;;;31.30;20.75;;;9.00;96.00;;;;;;5036047;28;20148;-77
2021/11/12 15:47:55;;;;;;;28.90;19.83;;;8.70;96.50;;;;;;5035631;28;20322;-77
2021/11/12 16:11:56;;;;;;;86.03;41.70;;;6.80;98.00;;;;;;5026032;28;20127;-78
2021/11/12 16:14:45;;;;;;;42.80;28.38;;;6.70;98.00;;;;;;5033833;28;20318;-76
2021/11/12 16:25:15;;;;;;;;;;;6.30;97.90;;;;;;5019898;28;20517;-76
2021/11/12 16:27:47;;;;;;;49.55;31.77;;;6.20;97.80;;;;;;5037209;28;19912;-76
2021/11/12 16:30:15;;;;;;;49.92;30.20;;;6.20;98.00;;;;;;5033956;28;20018;-77
2021/11/12 16:32:54;;;;;;;50.70;34.60;;;6.10;98.00;;;;;;5019545;28;20037;-76
2021/11/12 16:35:24;;;;;;;36.28;24.23;;;6.00;98.00;;;;;;5031567;28;20307;-76
2021/11/12 16:37:54;;;;;;;40.33;26.92;;;5.80;98.00;;;;;;5036845;28;20060;-76
2021/11/12 16:42:59;;;;;;;49.10;31.98;;;5.60;98.00;;;;;;5033565;28;20410;-74
2021/11/12 16:48:32;;;;;;;46.92;30.75;;;5.50;97.90;;;;;;5024937;28;20044;-75
2021/11/12 16:58:50;;;;;;;77.55;41.95;;;5.00;97.80;;;;;;5026621;28;20041;-75
2021/11/12 17:06:58;;;;;;;186.75;90.85;;;4.70;97.40;;;;;;5022082;28;20121;-76
2021/11/12 17:14:52;;;;;;;61.78;39.97;;;4.50;96.50;;;;;;5016282;28;20037;-76
2021/11/12 17:17:55;;;;;;;56.97;38.35;;;4.70;96.20;;;;;;5031583;28;20721;-77
2021/11/12 17:47:05;;;;;;;50.97;29.48;;;4.60;96.70;;;;;;5031800;28;20044;-75
2021/11/12 18:02:48;;;;;;;42.45;27.38;;;5.20;98.00;;;;;;5033637;28;20044;-75
2021/11/12 18:05:24;;;;;;;42.88;25.20;;;5.20;98.00;;;;;;5030830;28;20072;-75
2021/11/12 21:48:45;;;;;;;72.80;40.92;;;3.80;92.80;;;;;;5020420;28;20345;-75
2021/11/12 21:51:17;;;;;;;71.60;39.17;;;4.10;93.30;;;;;;5022791;28;20338;-75
2021/11/12 21:53:43;;;;;;;86.43;42.63;;;4.10;94.00;;;;;;5023486;28;20028;-76
2021/11/12 21:56:09;;;;;;;68.75;41.78;;;3.90;94.80;;;;;;5019519;28;20029;-75
2021/11/12 21:58:36;;;;;;;63.08;37.30;;;4.00;93.80;;;;;;5020367;28;20029;-75
2021/11/12 22:01:04;;;;;;;80.80;41.22;;;4.00;93.90;;;;;;5033100;28;20422;-76
2021/11/12 22:03:30;;;;;;;67.80;36.05;;;4.00;94.90;;;;;;5024399;28;20437;-76
2021/11/12 22:05:58;;;;;;;61.33;34.00;;;3.90;94.90;;;;;;5039790;28;20036;-76
2021/11/12 22:08:28;;;;;;;62.13;35.13;;;3.70;95.20;;;;;;5024114;28;20127;-76
2021/11/12 22:10:56;;;;;;;57.22;34.38;;;3.50;95.30;;;;;;5024528;28;20407;-76
2021/11/12 22:13:22;;;;;;;57.40;35.38;;;3.40;95.10;;;;;;5023003;28;20866;-77
2021/11/12 22:15:48;;;;;;;64.22;34.55;;;3.30;94.50;;;;;;5025691;28;20033;-75
2021/11/12 22:18:13;;;;;;;52.78;31.85;;;3.30;95.00;;;;;;5026149;28;20038;-77
2021/11/12 22:20:39;;;;;;;50.53;31.42;;;3.20;94.70;;;;;;5024147;28;20026;-76
2021/11/12 22:23:05;;;;;;;65.80;35.58;;;3.20;94.30;;;;;;5022455;28;20112;-76
2021/11/12 22:25:32;;;;;;;58.97;33.90;;;3.30;93.30;;;;;;5021950;28;20435;-75
2021/11/12 22:27:58;;;;;;;65.53;35.25;;;3.40;92.70;;;;;;5022918;28;20117;-75
2021/11/12 22:30:23;;;;;;;68.97;36.97;;;3.50;93.10;;;;;;5023464;28;20116;-76
2021/11/12 22:32:50;;;;;;;72.45;37.53;;;3.40;93.40;;;;;;5021588;28;20411;-76
2021/11/12 22:35:16;;;;;;;72.40;37.05;;;3.50;92.70;;;;;;5028438;28;20025;-76
2021/11/12 22:37:42;;;;;;;68.22;35.92;;;3.60;91.20;;;;;;5032816;28;20025;-76
2021/11/12 22:40:09;;;;;;;66.53;36.80;;;3.90;90.10;;;;;;5030760;28;20732;-76
2021/11/12 22:42:37;;;;;;;65.40;34.30;;;4.10;90.80;;;;;;5033132;28;20461;-76
2021/11/12 22:45:04;;;;;;;56.33;31.40;;;4.10;90.80;;;;;;5048876;28;20381;-76
2021/11/12 22:47:30;;;;;;;56.75;32.13;;;4.10;91.50;;;;;;5029847;28;20111;-76
2021/11/12 22:49:56;;;;;;;62.85;33.50;;;4.10;91.40;;;;;;5028309;28;20029;-75
2021/11/12 22:52:22;;;;;;;54.65;32.65;;;4.20;91.20;;;;;;5031552;28;20061;-76
2021/11/12 22:54:48;;;;;;;56.75;34.05;;;4.30;90.80;;;;;;5049809;28;20083;-77
2021/11/12 22:57:17;;;;;;;61.88;33.38;;;4.40;91.40;;;;;;5036939;28;20023;-76
2021/11/12 22:59:44;;;;;;;44.92;25.92;;;4.30;92.40;;;;;;5037269;28;20473;-76
2021/11/12 23:02:10;;;;;;;45.88;25.75;;;4.30;91.00;;;;;;5042977;28;20422;-75
2021/11/12 23:04:36;;;;;;;40.42;21.60;;;4.50;92.40;;;;;;5034672;28;20067;-76
2021/11/12 23:07:01;;;;;;;46.13;24.52;;;4.50;93.00;;;;;;5035601;28;20078;-76
2021/11/12 23:09:27;;;;;;;41.05;22.25;;;4.50;94.40;;;;;;5035982;28;20029;-76
2021/11/12 23:11:53;;;;;;;45.40;26.60;;;4.30;95.10;;;;;;5030977;28;20033;-76